sensor_id;sensor_type;location;lat;lon;timestamp;temperature;humidity
15450;DHT22;7826;49.784;9.934;2023-03-14T00:00:50;9.10;18.30
15450;DHT22;7826;49.784;9.934;2023-03-14T00:03:16;9.10;16.20
15450;DHT22;7826;49.784;9.934;2023-03-14T00:05:42;9.10;16.20
15450;DHT22;7826;49.784;9.934;2023-03-14T00:08:08;9.10;15.90
15450;DHT22;7826;49.784;9.934;2023-03-14T00:10:36;9.20;13.50
15450;DHT22;7826;49.784;9.934;2023-03-14T00:13:02;9.20;11.50
15450;DHT22;7826;49.784;9.934;2023-03-14T00:15:29;9.20;13.20
15450;DHT22;7826;49.784;9.934;2023-03-14T00:17:55;9.20;12.30
15450;DHT22;7826;49.784;9.934;2023-03-14T00:20:21;9.20;10.70
15450;DHT22;7826;49.784;9.934;2023-03-14T00:22:47;9.30;8.30
15450;DHT22;7826;49.784;9.934;2023-03-14T00:25:13;9.30;6.80
15450;DHT22;7826;49.784;9.934;2023-03-14T00:27:40;9.30;6.20
15450;DHT22;7826;49.784;9.934;2023-03-14T00:30:07;9.30;8.00
15450;DHT22;7826;49.784;9.934;2023-03-14T00:32:36;9.30;6.50
15450;DHT22;7826;49.784;9.934;2023-03-14T00:35:03;9.40;1.50
15450;DHT22;7826;49.784;9.934;2023-03-14T00:37:30;9.30;1.00
15450;DHT22;7826;49.784;9.934;2023-03-14T00:39:56;9.30;1.00
15450;DHT22;7826;49.784;9.934;2023-03-14T00:42:24;9.30;1.00
15450;DHT22;7826;49.784;9.934;2023-03-14T00:44:50;9.30;1.00
15450;DHT22;7826;49.784;9.934;2023-03-14T00:47:16;9.30;1.00
15450;DHT22;7826;49.784;9.934;2023-03-14T00:49:42;9.30;1.00
15450;DHT22;7826;49.784;9.934;2023-03-14T00:52:09;9.30;1.00
15450;DHT22;7826;49.784;9.934;2023-03-14T00:54:35;9.30;1.00
15450;DHT22;7826;49.784;9.934;2023-03-14T00:57:02;9.30;1.00
15450;DHT22;7826;49.784;9.934;2023-03-14T00:59:28;9.30;1.00
15450;DHT22;7826;49.784;9.934;2023-03-14T01:01:54;9.30;1.00
15450;DHT22;7826;49.784;9.934;2023-03-14T01:04:20;9.30;1.00
15450;DHT22;7826;49.784;9.934;2023-03-14T01:06:46;9.30;1.00
15450;DHT22;7826;49.784;9.934;2023-03-14T01:09:13;9.30;1.00
15450;DHT22;7826;49.784;9.934;2023-03-14T01:11:39;9.30;1.00
15450;DHT22;7826;49.784;9.934;2023-03-14T01:14:05;9.30;1.00
15450;DHT22;7826;49.784;9.934;2023-03-14T01:16:34;9.20;1.00
15450;DHT22;7826;49.784;9.934;2023-03-14T01:19:01;9.20;1.00
15450;DHT22;7826;49.784;9.934;2023-03-14T01:21:32;9.30;1.00
15450;DHT22;7826;49.784;9.934;2023-03-14T01:24:00;9.30;1.00
15450;DHT22;7826;49.784;9.934;2023-03-14T01:26:30;9.30;1.00
15450;DHT22;7826;49.784;9.934;2023-03-14T01:28:57;9.20;1.00
15450;DHT22;7826;49.784;9.934;2023-03-14T01:31:24;9.20;1.00
15450;DHT22;7826;49.784;9.934;2023-03-14T01:33:50;9.20;1.00
15450;DHT22;7826;49.784;9.934;2023-03-14T01:36:17;9.20;1.00
15450;DHT22;7826;49.784;9.934;2023-03-14T01:38:43;9.20;1.00
15450;DHT22;7826;49.784;9.934;2023-03-14T01:41:14;9.20;1.00
15450;DHT22;7826;49.784;9.934;2023-03-14T01:43:41;9.20;1.00
15450;DHT22;7826;49.784;9.934;2023-03-14T01:51:27;9.20;1.00
15450;DHT22;7826;49.784;9.934;2023-03-14T01:54:02;9.10;1.00
15450;DHT22;7826;49.784;9.934;2023-03-14T01:56:30;9.10;1.00
15450;DHT22;7826;49.784;9.934;2023-03-14T01:58:58;9.10;1.00
15450;DHT22;7826;49.784;9.934;2023-03-14T02:01:26;9.10;1.00
15450;DHT22;7826;49.784;9.934;2023-03-14T02:03:59;9.10;1.00
15450;DHT22;7826;49.784;9.934;2023-03-14T02:06:34;9.00;1.00
15450;DHT22;7826;49.784;9.934;2023-03-14T02:09:02;9.10;1.00
15450;DHT22;7826;49.784;9.934;2023-03-14T02:11:30;9.10;1.00
15450;DHT22;7826;49.784;9.934;2023-03-14T02:13:57;9.10;1.00
15450;DHT22;7826;49.784;9.934;2023-03-14T02:16:25;9.10;1.00
15450;DHT22;7826;49.784;9.934;2023-03-14T02:18:51;9.10;1.00
15450;DHT22;7826;49.784;9.934;2023-03-14T02:21:46;9.00;1.00
15450;DHT22;7826;49.784;9.934;2023-03-14T02:24:27;9.10;1.00
15450;DHT22;7826;49.784;9.934;2023-03-14T02:27:13;9.00;1.00
15450;DHT22;7826;49.784;9.934;2023-03-14T02:29:51;9.00;1.00
15450;DHT22;7826;49.784;9.934;2023-03-14T02:32:19;9.00;1.00
15450;DHT22;7826;49.784;9.934;2023-03-14T02:34:50;9.00;1.00
15450;DHT22;7826;49.784;9.934;2023-03-14T02:37:19;9.00;1.00
15450;DHT22;7826;49.784;9.934;2023-03-14T02:39:46;9.00;1.00
15450;DHT22;7826;49.784;9.934;2023-03-14T02:42:15;9.00;1.00
15450;DHT22;7826;49.784;9.934;2023-03-14T02:47:44;9.00;2.10
15450;DHT22;7826;49.784;9.934;2023-03-14T02:50:18;9.00;3.30
15450;DHT22;7826;49.784;9.934;2023-03-14T02:52:46;9.00;3.10
15450;DHT22;7826;49.784;9.934;2023-03-14T02:55:12;9.10;5.00
15450;DHT22;7826;49.784;9.934;2023-03-14T02:57:39;9.10;7.10
15450;DHT22;7826;49.784;9.934;2023-03-14T03:00:05;9.10;7.10
15450;DHT22;7826;49.784;9.934;2023-03-14T03:02:33;9.10;9.20
15450;DHT22;7826;49.784;9.934;2023-03-14T03:04:59;9.10;9.80
15450;DHT22;7826;49.784;9.934;2023-03-14T03:07:25;9.10;13.40
15450;DHT22;7826;49.784;9.934;2023-03-14T03:09:51;9.10;13.40
15450;DHT22;7826;49.784;9.934;2023-03-14T03:12:17;9.10;14.80
15450;DHT22;7826;49.784;9.934;2023-03-14T03:14:44;9.00;12.80
15450;DHT22;7826;49.784;9.934;2023-03-14T03:17:10;9.00;11.20
15450;DHT22;7826;49.784;9.934;2023-03-14T03:19:36;9.00;11.10
15450;DHT22;7826;49.784;9.934;2023-03-14T03:22:02;9.00;11.50
15450;DHT22;7826;49.784;9.934;2023-03-14T03:24:29;9.00;11.80
15450;DHT22;7826;49.784;9.934;2023-03-14T03:26:55;9.00;11.70
15450;DHT22;7826;49.784;9.934;2023-03-14T03:29:21;9.00;13.70
15450;DHT22;7826;49.784;9.934;2023-03-14T03:31:47;9.00;13.90
15450;DHT22;7826;49.784;9.934;2023-03-14T03:34:14;9.00;9.50
15450;DHT22;7826;49.784;9.934;2023-03-14T03:36:40;9.00;10.30
15450;DHT22;7826;49.784;9.934;2023-03-14T03:39:06;9.00;7.50
15450;DHT22;7826;49.784;9.934;2023-03-14T03:41:33;9.00;5.60
15450;DHT22;7826;49.784;9.934;2023-03-14T03:43:59;9.10;4.60
15450;DHT22;7826;49.784;9.934;2023-03-14T03:46:25;9.10;2.60
15450;DHT22;7826;49.784;9.934;2023-03-14T03:48:56;9.20;1.40
15450;DHT22;7826;49.784;9.934;2023-03-14T03:51:23;9.20;1.00
15450;DHT22;7826;49.784;9.934;2023-03-14T03:53:49;9.20;1.00
15450;DHT22;7826;49.784;9.934;2023-03-14T03:56:16;9.20;1.00
15450;DHT22;7826;49.784;9.934;2023-03-14T03:58:42;9.20;1.00
15450;DHT22;7826;49.784;9.934;2023-03-14T04:01:09;9.30;1.00
15450;DHT22;7826;49.784;9.934;2023-03-14T04:03:36;9.30;1.00
15450;DHT22;7826;49.784;9.934;2023-03-14T04:06:08;9.30;1.00
15450;DHT22;7826;49.784;9.934;2023-03-14T04:08:34;9.30;1.00
15450;DHT22;7826;49.784;9.934;2023-03-14T04:11:01;9.30;1.00
15450;DHT22;7826;49.784;9.934;2023-03-14T04:13:28;9.30;1.00
15450;DHT22;7826;49.784;9.934;2023-03-14T04:15:55;9.30;1.00
15450;DHT22;7826;49.784;9.934;2023-03-14T04:18:22;9.30;1.00
15450;DHT22;7826;49.784;9.934;2023-03-14T04:20:54;9.30;1.00
15450;DHT22;7826;49.784;9.934;2023-03-14T04:23:22;9.30;1.00
15450;DHT22;7826;49.784;9.934;2023-03-14T04:25:53;9.30;1.00
15450;DHT22;7826;49.784;9.934;2023-03-14T04:28:19;9.30;1.00
15450;DHT22;7826;49.784;9.934;2023-03-14T04:30:45;9.30;1.00
15450;DHT22;7826;49.784;9.934;2023-03-14T04:33:12;9.30;1.00
15450;DHT22;7826;49.784;9.934;2023-03-14T04:35:41;9.30;1.00
15450;DHT22;7826;49.784;9.934;2023-03-14T04:38:07;9.40;1.00
15450;DHT22;7826;49.784;9.934;2023-03-14T04:40:33;9.40;1.00
15450;DHT22;7826;49.784;9.934;2023-03-14T04:43:02;9.40;1.00
15450;DHT22;7826;49.784;9.934;2023-03-14T04:45:28;9.40;1.00
15450;DHT22;7826;49.784;9.934;2023-03-14T04:47:54;9.40;1.00
15450;DHT22;7826;49.784;9.934;2023-03-14T04:50:20;9.40;1.00
15450;DHT22;7826;49.784;9.934;2023-03-14T04:52:46;9.40;1.00
15450;DHT22;7826;49.784;9.934;2023-03-14T04:55:12;9.40;1.00
15450;DHT22;7826;49.784;9.934;2023-03-14T04:57:38;9.40;1.00
15450;DHT22;7826;49.784;9.934;2023-03-14T05:00:05;9.40;1.00
15450;DHT22;7826;49.784;9.934;2023-03-14T05:02:32;9.40;1.00
15450;DHT22;7826;49.784;9.934;2023-03-14T05:04:58;9.40;1.00
15450;DHT22;7826;49.784;9.934;2023-03-14T05:07:25;9.40;1.00
15450;DHT22;7826;49.784;9.934;2023-03-14T05:09:51;9.40;1.00
15450;DHT22;7826;49.784;9.934;2023-03-14T05:12:20;9.40;1.00
15450;DHT22;7826;49.784;9.934;2023-03-14T05:14:46;9.40;1.00
15450;DHT22;7826;49.784;9.934;2023-03-14T05:17:12;9.30;1.00
15450;DHT22;7826;49.784;9.934;2023-03-14T05:19:41;9.30;1.00
15450;DHT22;7826;49.784;9.934;2023-03-14T05:22:07;9.30;1.00
15450;DHT22;7826;49.784;9.934;2023-03-14T05:24:33;9.30;1.00
15450;DHT22;7826;49.784;9.934;2023-03-14T05:26:59;9.30;1.00
15450;DHT22;7826;49.784;9.934;2023-03-14T05:29:26;9.30;1.00
15450;DHT22;7826;49.784;9.934;2023-03-14T05:31:52;9.40;1.00
15450;DHT22;7826;49.784;9.934;2023-03-14T05:34:18;9.40;1.00
15450;DHT22;7826;49.784;9.934;2023-03-14T05:36:44;9.40;1.00
15450;DHT22;7826;49.784;9.934;2023-03-14T05:39:10;9.40;1.00
15450;DHT22;7826;49.784;9.934;2023-03-14T05:41:37;9.40;1.00
15450;DHT22;7826;49.784;9.934;2023-03-14T05:44:03;9.40;1.00
15450;DHT22;7826;49.784;9.934;2023-03-14T05:46:29;9.40;1.00
15450;DHT22;7826;49.784;9.934;2023-03-14T05:48:57;9.40;1.00
15450;DHT22;7826;49.784;9.934;2023-03-14T05:51:24;9.40;99.90
15450;DHT22;7826;49.784;9.934;2023-03-14T05:53:50;9.50;99.90
15450;DHT22;7826;49.784;9.934;2023-03-14T05:56:16;9.50;99.90
15450;DHT22;7826;49.784;9.934;2023-03-14T05:58:42;9.50;99.90
15450;DHT22;7826;49.784;9.934;2023-03-14T06:01:09;9.50;99.90
15450;DHT22;7826;49.784;9.934;2023-03-14T06:03:36;9.50;99.90
15450;DHT22;7826;49.784;9.934;2023-03-14T06:06:02;9.50;99.90
15450;DHT22;7826;49.784;9.934;2023-03-14T06:08:28;9.50;99.90
15450;DHT22;7826;49.784;9.934;2023-03-14T06:10:54;9.50;99.90
15450;DHT22;7826;49.784;9.934;2023-03-14T06:13:22;9.50;99.90
15450;DHT22;7826;49.784;9.934;2023-03-14T06:15:48;9.60;1.00
15450;DHT22;7826;49.784;9.934;2023-03-14T06:18:15;9.60;1.00
15450;DHT22;7826;49.784;9.934;2023-03-14T06:20:41;9.60;1.00
15450;DHT22;7826;49.784;9.934;2023-03-14T06:23:08;9.70;1.00
15450;DHT22;7826;49.784;9.934;2023-03-14T06:25:35;9.70;1.00
15450;DHT22;7826;49.784;9.934;2023-03-14T06:28:02;9.70;1.00
15450;DHT22;7826;49.784;9.934;2023-03-14T06:30:28;9.70;99.90
15450;DHT22;7826;49.784;9.934;2023-03-14T06:32:54;9.70;99.90
15450;DHT22;7826;49.784;9.934;2023-03-14T06:35:22;9.80;3.30
15450;DHT22;7826;49.784;9.934;2023-03-14T06:37:48;9.80;1.00
15450;DHT22;7826;49.784;9.934;2023-03-14T06:40:15;9.80;1.00
15450;DHT22;7826;49.784;9.934;2023-03-14T06:42:44;9.90;1.00
15450;DHT22;7826;49.784;9.934;2023-03-14T06:45:11;10.00;1.00
15450;DHT22;7826;49.784;9.934;2023-03-14T06:47:37;10.10;1.00
15450;DHT22;7826;49.784;9.934;2023-03-14T06:50:07;10.30;99.90
15450;DHT22;7826;49.784;9.934;2023-03-14T06:52:34;10.40;99.90
15450;DHT22;7826;49.784;9.934;2023-03-14T06:55:00;10.40;99.90
15450;DHT22;7826;49.784;9.934;2023-03-14T06:57:26;10.40;65.00
15450;DHT22;7826;49.784;9.934;2023-03-14T06:59:53;10.50;1.00
15450;DHT22;7826;49.784;9.934;2023-03-14T07:02:19;10.60;1.00
15450;DHT22;7826;49.784;9.934;2023-03-14T07:04:45;10.80;1.00
15450;DHT22;7826;49.784;9.934;2023-03-14T07:07:12;10.80;1.00
15450;DHT22;7826;49.784;9.934;2023-03-14T07:09:41;10.80;1.00
15450;DHT22;7826;49.784;9.934;2023-03-14T07:12:08;10.70;99.90
15450;DHT22;7826;49.784;9.934;2023-03-14T07:14:34;10.60;99.90
15450;DHT22;7826;49.784;9.934;2023-03-14T07:17:01;10.60;99.90
15450;DHT22;7826;49.784;9.934;2023-03-14T07:19:26;10.60;99.90
15450;DHT22;7826;49.784;9.934;2023-03-14T07:21:52;10.60;99.90
15450;DHT22;7826;49.784;9.934;2023-03-14T07:24:18;10.60;99.90
15450;DHT22;7826;49.784;9.934;2023-03-14T07:26:45;10.60;1.00
15450;DHT22;7826;49.784;9.934;2023-03-14T07:29:11;10.60;1.00
15450;DHT22;7826;49.784;9.934;2023-03-14T07:31:37;10.60;1.60
15450;DHT22;7826;49.784;9.934;2023-03-14T07:34:04;10.60;99.90
15450;DHT22;7826;49.784;9.934;2023-03-14T07:36:30;10.60;99.90
15450;DHT22;7826;49.784;9.934;2023-03-14T07:38:56;10.70;1.00
15450;DHT22;7826;49.784;9.934;2023-03-14T07:41:23;10.60;99.90
15450;DHT22;7826;49.784;9.934;2023-03-14T07:43:49;10.70;1.00
15450;DHT22;7826;49.784;9.934;2023-03-14T07:46:16;10.70;1.00
15450;DHT22;7826;49.784;9.934;2023-03-14T07:48:43;10.80;1.00
15450;DHT22;7826;49.784;9.934;2023-03-14T07:51:10;10.80;1.00
15450;DHT22;7826;49.784;9.934;2023-03-14T07:53:36;10.70;1.00
15450;DHT22;7826;49.784;9.934;2023-03-14T07:56:03;10.70;99.90
15450;DHT22;7826;49.784;9.934;2023-03-14T07:58:29;10.70;99.90
15450;DHT22;7826;49.784;9.934;2023-03-14T08:00:58;10.70;1.00
15450;DHT22;7826;49.784;9.934;2023-03-14T08:03:24;10.80;1.00
15450;DHT22;7826;49.784;9.934;2023-03-14T08:05:51;10.80;99.90
15450;DHT22;7826;49.784;9.934;2023-03-14T08:08:18;10.90;20.20
15450;DHT22;7826;49.784;9.934;2023-03-14T08:10:45;11.00;99.90
15450;DHT22;7826;49.784;9.934;2023-03-14T08:13:12;11.20;1.00
15450;DHT22;7826;49.784;9.934;2023-03-14T08:15:39;11.30;1.00
15450;DHT22;7826;49.784;9.934;2023-03-14T08:18:05;11.50;1.00
15450;DHT22;7826;49.784;9.934;2023-03-14T08:20:32;11.60;99.90
15450;DHT22;7826;49.784;9.934;2023-03-14T08:23:00;11.80;18.10
15450;DHT22;7826;49.784;9.934;2023-03-14T08:25:27;12.00;1.00
15450;DHT22;7826;49.784;9.934;2023-03-14T08:27:54;12.20;1.00
15450;DHT22;7826;49.784;9.934;2023-03-14T08:30:21;12.20;1.00
15450;DHT22;7826;49.784;9.934;2023-03-14T08:32:48;12.30;1.00
15450;DHT22;7826;49.784;9.934;2023-03-14T08:35:15;12.40;1.00
15450;DHT22;7826;49.784;9.934;2023-03-14T08:37:41;12.60;1.00
15450;DHT22;7826;49.784;9.934;2023-03-14T08:40:08;12.60;1.00
15450;DHT22;7826;49.784;9.934;2023-03-14T08:42:37;12.50;1.00
15450;DHT22;7826;49.784;9.934;2023-03-14T08:45:04;12.70;1.00
15450;DHT22;7826;49.784;9.934;2023-03-14T08:47:31;13.20;1.00
15450;DHT22;7826;49.784;9.934;2023-03-14T08:49:57;13.60;1.00
15450;DHT22;7826;49.784;9.934;2023-03-14T08:52:23;14.20;1.00
15450;DHT22;7826;49.784;9.934;2023-03-14T08:54:50;15.30;1.00
15450;DHT22;7826;49.784;9.934;2023-03-14T08:57:16;16.30;1.00
15450;DHT22;7826;49.784;9.934;2023-03-14T08:59:42;16.70;1.00
15450;DHT22;7826;49.784;9.934;2023-03-14T09:02:12;16.50;49.30
15450;DHT22;7826;49.784;9.934;2023-03-14T09:04:38;16.00;97.80
15450;DHT22;7826;49.784;9.934;2023-03-14T09:07:04;15.50;99.90
15450;DHT22;7826;49.784;9.934;2023-03-14T09:09:31;15.30;99.90
15450;DHT22;7826;49.784;9.934;2023-03-14T09:11:57;15.20;99.90
15450;DHT22;7826;49.784;9.934;2023-03-14T09:14:24;15.30;99.90
15450;DHT22;7826;49.784;9.934;2023-03-14T09:16:50;15.20;99.90
15450;DHT22;7826;49.784;9.934;2023-03-14T09:19:16;14.90;99.90
15450;DHT22;7826;49.784;9.934;2023-03-14T09:21:43;14.90;99.90
15450;DHT22;7826;49.784;9.934;2023-03-14T09:24:09;14.70;99.90
15450;DHT22;7826;49.784;9.934;2023-03-14T09:26:36;14.40;99.90
15450;DHT22;7826;49.784;9.934;2023-03-14T09:29:02;14.10;99.90
15450;DHT22;7826;49.784;9.934;2023-03-14T09:31:29;13.90;99.90
15450;DHT22;7826;49.784;9.934;2023-03-14T09:33:56;13.80;99.90
15450;DHT22;7826;49.784;9.934;2023-03-14T09:36:23;13.60;99.90
15450;DHT22;7826;49.784;9.934;2023-03-14T09:38:49;13.60;99.90
15450;DHT22;7826;49.784;9.934;2023-03-14T09:43:47;13.70;99.90
15450;DHT22;7826;49.784;9.934;2023-03-14T09:46:17;13.80;99.90
15450;DHT22;7826;49.784;9.934;2023-03-14T09:48:44;13.80;99.90
15450;DHT22;7826;49.784;9.934;2023-03-14T09:51:14;13.90;99.90
15450;DHT22;7826;49.784;9.934;2023-03-14T09:53:47;14.00;99.90
15450;DHT22;7826;49.784;9.934;2023-03-14T09:56:29;14.20;99.90
15450;DHT22;7826;49.784;9.934;2023-03-14T09:59:03;14.20;99.90
15450;DHT22;7826;49.784;9.934;2023-03-14T10:01:32;14.20;99.90
15450;DHT22;7826;49.784;9.934;2023-03-14T10:04:09;14.30;99.90
15450;DHT22;7826;49.784;9.934;2023-03-14T10:06:36;14.40;99.90
15450;DHT22;7826;49.784;9.934;2023-03-14T10:09:03;14.50;99.90
15450;DHT22;7826;49.784;9.934;2023-03-14T10:11:32;14.60;99.90
15450;DHT22;7826;49.784;9.934;2023-03-14T10:14:10;14.50;99.90
15450;DHT22;7826;49.784;9.934;2023-03-14T10:16:45;14.60;99.90
15450;DHT22;7826;49.784;9.934;2023-03-14T10:19:14;14.50;99.90
15450;DHT22;7826;49.784;9.934;2023-03-14T10:21:52;14.60;99.90
15450;DHT22;7826;49.784;9.934;2023-03-14T10:26:57;15.00;99.90
15450;DHT22;7826;49.784;9.934;2023-03-14T10:29:24;15.20;99.90
15450;DHT22;7826;49.784;9.934;2023-03-14T10:31:57;15.00;99.90
15450;DHT22;7826;49.784;9.934;2023-03-14T10:34:30;14.70;99.90
15450;DHT22;7826;49.784;9.934;2023-03-14T10:40:01;14.30;99.90
15450;DHT22;7826;49.784;9.934;2023-03-14T10:42:39;14.30;99.90
15450;DHT22;7826;49.784;9.934;2023-03-14T10:45:33;14.30;99.90
15450;DHT22;7826;49.784;9.934;2023-03-14T10:50:54;14.40;94.30
15450;DHT22;7826;49.784;9.934;2023-03-14T10:53:20;14.30;55.00
15450;DHT22;7826;49.784;9.934;2023-03-14T10:55:47;14.10;77.80
15450;DHT22;7826;49.784;9.934;2023-03-14T10:58:25;14.00;91.10
15450;DHT22;7826;49.784;9.934;2023-03-14T11:03:32;14.00;71.20
15450;DHT22;7826;49.784;9.934;2023-03-14T11:06:09;14.10;57.20
15450;DHT22;7826;49.784;9.934;2023-03-14T11:11:18;14.50;64.10
15450;DHT22;7826;49.784;9.934;2023-03-14T11:19:53;14.90;39.20
15450;DHT22;7826;49.784;9.934;2023-03-14T11:22:31;14.80;25.20
15450;DHT22;7826;49.784;9.934;2023-03-14T11:25:12;14.80;46.90
15450;DHT22;7826;49.784;9.934;2023-03-14T11:28:09;14.50;48.30
15450;DHT22;7826;49.784;9.934;2023-03-14T11:33:31;14.50;20.20
15450;DHT22;7826;49.784;9.934;2023-03-14T11:36:06;14.70;55.20
15450;DHT22;7826;49.784;9.934;2023-03-14T11:38:55;14.80;16.00
15450;DHT22;7826;49.784;9.934;2023-03-14T11:41:33;15.00;1.00
15450;DHT22;7826;49.784;9.934;2023-03-14T11:44:17;15.00;29.90
15450;DHT22;7826;49.784;9.934;2023-03-14T11:49:48;14.90;9.00
15450;DHT22;7826;49.784;9.934;2023-03-14T11:55:07;14.50;4.80
15450;DHT22;7826;49.784;9.934;2023-03-14T11:57:36;14.30;16.80
15450;DHT22;7826;49.784;9.934;2023-03-14T12:00:17;14.30;21.60
15450;DHT22;7826;49.784;9.934;2023-03-14T12:11:39;13.40;13.50
15450;DHT22;7826;49.784;9.934;2023-03-14T12:14:27;13.00;13.40
15450;DHT22;7826;49.784;9.934;2023-03-14T12:17:05;12.80;21.00
15450;DHT22;7826;49.784;9.934;2023-03-14T12:19:37;12.60;28.60
15450;DHT22;7826;49.784;9.934;2023-03-14T12:25:04;12.40;12.70
15450;DHT22;7826;49.784;9.934;2023-03-14T12:30:27;12.00;56.50
15450;DHT22;7826;49.784;9.934;2023-03-14T12:35:47;11.90;92.60
15450;DHT22;7826;49.784;9.934;2023-03-14T12:38:32;11.90;99.90
15450;DHT22;7826;49.784;9.934;2023-03-14T12:43:47;11.70;99.90
15450;DHT22;7826;49.784;9.934;2023-03-14T12:48:53;11.70;99.90
15450;DHT22;7826;49.784;9.934;2023-03-14T12:51:29;11.70;99.90
15450;DHT22;7826;49.784;9.934;2023-03-14T12:54:24;11.60;99.90
15450;DHT22;7826;49.784;9.934;2023-03-14T13:02:49;11.50;99.90
15450;DHT22;7826;49.784;9.934;2023-03-14T13:05:22;11.60;99.90
15450;DHT22;7826;49.784;9.934;2023-03-14T13:10:28;11.70;99.90
15450;DHT22;7826;49.784;9.934;2023-03-14T13:13:25;11.90;99.90
15450;DHT22;7826;49.784;9.934;2023-03-14T13:15:59;12.20;99.90
15450;DHT22;7826;49.784;9.934;2023-03-14T13:18:41;12.30;99.90
15450;DHT22;7826;49.784;9.934;2023-03-14T13:21:17;12.40;99.90
15450;DHT22;7826;49.784;9.934;2023-03-14T13:24:00;12.30;99.90
15450;DHT22;7826;49.784;9.934;2023-03-14T13:26:40;12.20;99.90
15450;DHT22;7826;49.784;9.934;2023-03-14T13:29:29;12.10;99.90
15450;DHT22;7826;49.784;9.934;2023-03-14T13:32:00;12.10;99.90
15450;DHT22;7826;49.784;9.934;2023-03-14T13:34:32;12.00;99.90
15450;DHT22;7826;49.784;9.934;2023-03-14T13:36:59;11.60;99.90
15450;DHT22;7826;49.784;9.934;2023-03-14T13:39:27;11.50;99.90
15450;DHT22;7826;49.784;9.934;2023-03-14T13:41:59;11.10;99.90
15450;DHT22;7826;49.784;9.934;2023-03-14T13:44:29;10.90;99.90
15450;DHT22;7826;49.784;9.934;2023-03-14T13:47:01;10.70;99.90
15450;DHT22;7826;49.784;9.934;2023-03-14T13:49:29;10.60;99.90
15450;DHT22;7826;49.784;9.934;2023-03-14T13:51:58;10.50;99.90
15450;DHT22;7826;49.784;9.934;2023-03-14T13:54:26;10.50;92.00
15450;DHT22;7826;49.784;9.934;2023-03-14T13:57:00;10.30;50.40
15450;DHT22;7826;49.784;9.934;2023-03-14T13:59:29;10.10;26.10
15450;DHT22;7826;49.784;9.934;2023-03-14T14:01:57;9.90;19.80
15450;DHT22;7826;49.784;9.934;2023-03-14T14:04:25;9.90;21.10
15450;DHT22;7826;49.784;9.934;2023-03-14T14:09:45;9.90;23.40
15450;DHT22;7826;49.784;9.934;2023-03-14T14:12:17;9.90;47.00
15450;DHT22;7826;49.784;9.934;2023-03-14T14:14:57;9.80;19.50
15450;DHT22;7826;49.784;9.934;2023-03-14T14:17:32;9.80;19.20
15450;DHT22;7826;49.784;9.934;2023-03-14T14:20:00;9.80;21.80
15450;DHT22;7826;49.784;9.934;2023-03-14T14:22:30;9.90;40.70
15450;DHT22;7826;49.784;9.934;2023-03-14T14:24:56;10.00;21.90
15450;DHT22;7826;49.784;9.934;2023-03-14T14:27:42;10.00;39.10
15450;DHT22;7826;49.784;9.934;2023-03-14T14:32:46;9.70;40.60
15450;DHT22;7826;49.784;9.934;2023-03-14T14:35:31;9.60;47.90
15450;DHT22;7826;49.784;9.934;2023-03-14T14:37:58;9.50;68.90
15450;DHT22;7826;49.784;9.934;2023-03-14T14:40:29;9.60;99.90
15450;DHT22;7826;49.784;9.934;2023-03-14T14:43:02;9.50;98.80
15450;DHT22;7826;49.784;9.934;2023-03-14T14:45:30;9.50;92.10
15450;DHT22;7826;49.784;9.934;2023-03-14T14:48:06;9.70;99.90
15450;DHT22;7826;49.784;9.934;2023-03-14T14:53:26;9.70;98.00
15450;DHT22;7826;49.784;9.934;2023-03-14T14:55:55;9.60;75.90
15450;DHT22;7826;49.784;9.934;2023-03-14T14:58:33;9.60;99.90
15450;DHT22;7826;49.784;9.934;2023-03-14T15:01:17;9.60;81.00
15450;DHT22;7826;49.784;9.934;2023-03-14T15:03:47;9.70;86.50
15450;DHT22;7826;49.784;9.934;2023-03-14T15:06:15;9.70;98.20
15450;DHT22;7826;49.784;9.934;2023-03-14T15:08:47;9.70;93.30
15450;DHT22;7826;49.784;9.934;2023-03-14T15:11:19;9.60;59.30
15450;DHT22;7826;49.784;9.934;2023-03-14T15:13:46;9.50;58.10
15450;DHT22;7826;49.784;9.934;2023-03-14T15:16:14;9.40;79.50
15450;DHT22;7826;49.784;9.934;2023-03-14T15:18:41;9.30;52.00
15450;DHT22;7826;49.784;9.934;2023-03-14T15:21:10;9.10;70.30
15450;DHT22;7826;49.784;9.934;2023-03-14T15:23:37;9.00;83.40
15450;DHT22;7826;49.784;9.934;2023-03-14T15:26:14;8.90;56.50
15450;DHT22;7826;49.784;9.934;2023-03-14T15:28:41;8.90;55.50
15450;DHT22;7826;49.784;9.934;2023-03-14T15:31:09;8.80;58.50
15450;DHT22;7826;49.784;9.934;2023-03-14T15:33:36;8.80;54.50
15450;DHT22;7826;49.784;9.934;2023-03-14T15:36:03;8.80;60.50
15450;DHT22;7826;49.784;9.934;2023-03-14T15:38:30;9.00;58.70
15450;DHT22;7826;49.784;9.934;2023-03-14T15:40:56;9.00;68.30
15450;DHT22;7826;49.784;9.934;2023-03-14T15:43:23;9.10;63.70
15450;DHT22;7826;49.784;9.934;2023-03-14T15:45:49;9.20;56.40
15450;DHT22;7826;49.784;9.934;2023-03-14T15:48:19;9.10;54.90
15450;DHT22;7826;49.784;9.934;2023-03-14T15:50:45;9.10;70.50
15450;DHT22;7826;49.784;9.934;2023-03-14T15:53:12;9.10;50.80
15450;DHT22;7826;49.784;9.934;2023-03-14T15:55:39;9.00;38.20
15450;DHT22;7826;49.784;9.934;2023-03-14T15:58:05;9.10;69.30
15450;DHT22;7826;49.784;9.934;2023-03-14T16:00:32;8.80;43.60
15450;DHT22;7826;49.784;9.934;2023-03-14T16:02:58;8.90;40.70
15450;DHT22;7826;49.784;9.934;2023-03-14T16:05:25;8.80;65.50
15450;DHT22;7826;49.784;9.934;2023-03-14T16:07:51;8.60;52.60
15450;DHT22;7826;49.784;9.934;2023-03-14T16:10:18;8.10;47.50
15450;DHT22;7826;49.784;9.934;2023-03-14T16:12:44;7.80;63.50
15450;DHT22;7826;49.784;9.934;2023-03-14T16:15:10;7.40;73.40
15450;DHT22;7826;49.784;9.934;2023-03-14T16:17:37;7.20;99.90
15450;DHT22;7826;49.784;9.934;2023-03-14T16:20:06;6.90;99.90
15450;DHT22;7826;49.784;9.934;2023-03-14T16:22:32;6.80;99.90
15450;DHT22;7826;49.784;9.934;2023-03-14T16:25:02;6.60;1.00
15450;DHT22;7826;49.784;9.934;2023-03-14T16:27:30;6.50;1.00
15450;DHT22;7826;49.784;9.934;2023-03-14T16:29:57;6.40;1.00
15450;DHT22;7826;49.784;9.934;2023-03-14T16:32:26;6.30;21.00
15450;DHT22;7826;49.784;9.934;2023-03-14T16:34:53;6.20;1.00
15450;DHT22;7826;49.784;9.934;2023-03-14T16:37:22;6.10;99.90
15450;DHT22;7826;49.784;9.934;2023-03-14T16:39:49;6.00;99.90
15450;DHT22;7826;49.784;9.934;2023-03-14T16:42:16;6.00;99.90
15450;DHT22;7826;49.784;9.934;2023-03-14T16:44:46;5.90;99.90
15450;DHT22;7826;49.784;9.934;2023-03-14T16:47:13;5.80;99.90
15450;DHT22;7826;49.784;9.934;2023-03-14T16:49:40;5.70;67.00
15450;DHT22;7826;49.784;9.934;2023-03-14T16:52:08;5.70;99.90
15450;DHT22;7826;49.784;9.934;2023-03-14T16:54:35;5.70;1.00
15450;DHT22;7826;49.784;9.934;2023-03-14T16:57:02;5.60;1.00
15450;DHT22;7826;49.784;9.934;2023-03-14T16:59:28;5.60;1.00
15450;DHT22;7826;49.784;9.934;2023-03-14T17:01:55;5.60;1.00
15450;DHT22;7826;49.784;9.934;2023-03-14T17:04:23;5.60;1.00
15450;DHT22;7826;49.784;9.934;2023-03-14T17:06:53;5.60;1.00
15450;DHT22;7826;49.784;9.934;2023-03-14T17:09:21;5.50;1.00
15450;DHT22;7826;49.784;9.934;2023-03-14T17:11:48;5.50;1.00
15450;DHT22;7826;49.784;9.934;2023-03-14T17:14:15;5.50;1.00
15450;DHT22;7826;49.784;9.934;2023-03-14T17:16:43;5.50;1.00
15450;DHT22;7826;49.784;9.934;2023-03-14T17:19:10;5.60;1.00
15450;DHT22;7826;49.784;9.934;2023-03-14T17:21:37;5.60;1.00
15450;DHT22;7826;49.784;9.934;2023-03-14T17:24:04;5.50;1.00
15450;DHT22;7826;49.784;9.934;2023-03-14T17:26:34;5.50;1.00
15450;DHT22;7826;49.784;9.934;2023-03-14T17:29:01;5.50;1.00
15450;DHT22;7826;49.784;9.934;2023-03-14T17:31:28;5.70;1.00